sensor_id;sensor_type;location;lat;lon;timestamp;P1;durP1;ratioP1;P2;durP2;ratioP2
6101;SDS011;3081;50.584;7.032;2022-08-04T00:02:32;14.20;;;2.50;;
6101;SDS011;3081;50.584;7.032;2022-08-04T00:05:16;11.83;;;2.70;;
6101;SDS011;3081;50.584;7.032;2022-08-04T00:07:52;15.60;;;2.70;;
6101;SDS011;3081;50.584;7.032;2022-08-04T00:10:28;11.93;;;2.23;;
6101;SDS011;3081;50.584;7.032;2022-08-04T00:12:58;13.77;;;2.70;;
6101;SDS011;3081;50.584;7.032;2022-08-04T00:15:27;13.10;;;3.13;;
6101;SDS011;3081;50.584;7.032;2022-08-04T00:17:57;10.80;;;2.53;;
6101;SDS011;3081;50.584;7.032;2022-08-04T00:20:28;16.93;;;2.47;;
6101;SDS011;3081;50.584;7.032;2022-08-04T00:22:57;11.63;;;2.10;;
6101;SDS011;3081;50.584;7.032;2022-08-04T00:25:26;11.30;;;2.70;;
6101;SDS011;3081;50.584;7.032;2022-08-04T00:27:55;11.70;;;2.80;;
6101;SDS011;3081;50.584;7.032;2022-08-04T00:30:22;12.20;;;2.83;;
6101;SDS011;3081;50.584;7.032;2022-08-04T00:32:50;13.90;;;2.87;;
6101;SDS011;3081;50.584;7.032;2022-08-04T00:35:17;11.20;;;2.87;;
6101;SDS011;3081;50.584;7.032;2022-08-04T00:37:44;12.93;;;2.30;;
6101;SDS011;3081;50.584;7.032;2022-08-04T00:40:22;10.37;;;2.33;;
6101;SDS011;3081;50.584;7.032;2022-08-04T00:43:05;15.13;;;2.70;;
6101;SDS011;3081;50.584;7.032;2022-08-04T00:46:03;11.63;;;2.90;;
6101;SDS011;3081;50.584;7.032;2022-08-04T00:49:09;11.77;;;3.00;;
6101;SDS011;3081;50.584;7.032;2022-08-04T00:51:59;12.27;;;2.87;;
6101;SDS011;3081;50.584;7.032;2022-08-04T00:54:36;11.10;;;3.03;;
6101;SDS011;3081;50.584;7.032;2022-08-04T00:57:27;10.37;;;2.63;;
6101;SDS011;3081;50.584;7.032;2022-08-04T01:00:05;10.80;;;2.57;;
6101;SDS011;3081;50.584;7.032;2022-08-04T01:02:35;10.80;;;2.77;;
6101;SDS011;3081;50.584;7.032;2022-08-04T01:05:05;10.50;;;2.50;;
6101;SDS011;3081;50.584;7.032;2022-08-04T01:07:53;11.50;;;2.37;;
6101;SDS011;3081;50.584;7.032;2022-08-04T01:10:50;10.90;;;2.80;;
6101;SDS011;3081;50.584;7.032;2022-08-04T01:13:34;12.07;;;2.50;;
6101;SDS011;3081;50.584;7.032;2022-08-04T01:16:20;11.20;;;2.27;;
6101;SDS011;3081;50.584;7.032;2022-08-04T01:18:52;11.57;;;2.33;;
6101;SDS011;3081;50.584;7.032;2022-08-04T01:21:30;11.77;;;3.10;;
6101;SDS011;3081;50.584;7.032;2022-08-04T01:24:39;11.07;;;2.77;;
6101;SDS011;3081;50.584;7.032;2022-08-04T01:27:25;10.43;;;2.17;;
6101;SDS011;3081;50.584;7.032;2022-08-04T01:30:00;10.40;;;2.73;;
6101;SDS011;3081;50.584;7.032;2022-08-04T01:32:30;12.87;;;2.57;;
6101;SDS011;3081;50.584;7.032;2022-08-04T01:35:01;10.00;;;2.43;;
6101;SDS011;3081;50.584;7.032;2022-08-04T01:37:38;11.53;;;2.70;;
6101;SDS011;3081;50.584;7.032;2022-08-04T01:40:14;12.17;;;3.00;;
6101;SDS011;3081;50.584;7.032;2022-08-04T01:42:42;9.80;;;2.40;;
6101;SDS011;3081;50.584;7.032;2022-08-04T01:45:12;10.37;;;2.70;;
6101;SDS011;3081;50.584;7.032;2022-08-04T01:47:40;11.30;;;2.83;;
6101;SDS011;3081;50.584;7.032;2022-08-04T01:50:09;11.00;;;2.57;;
6101;SDS011;3081;50.584;7.032;2022-08-04T01:52:39;11.10;;;2.80;;
6101;SDS011;3081;50.584;7.032;2022-08-04T01:55:08;12.50;;;2.87;;
6101;SDS011;3081;50.584;7.032;2022-08-04T01:57:40;11.63;;;2.87;;
6101;SDS011;3081;50.584;7.032;2022-08-04T02:00:08;14.00;;;3.20;;
6101;SDS011;3081;50.584;7.032;2022-08-04T02:02:37;13.10;;;2.80;;
6101;SDS011;3081;50.584;7.032;2022-08-04T02:05:05;11.83;;;2.63;;
6101;SDS011;3081;50.584;7.032;2022-08-04T02:07:45;11.03;;;2.17;;
6101;SDS011;3081;50.584;7.032;2022-08-04T02:10:22;10.17;;;2.77;;
6101;SDS011;3081;50.584;7.032;2022-08-04T02:12:55;10.70;;;2.60;;
6101;SDS011;3081;50.584;7.032;2022-08-04T02:15:35;9.90;;;2.30;;
6101;SDS011;3081;50.584;7.032;2022-08-04T02:18:10;13.10;;;2.90;;
6101;SDS011;3081;50.584;7.032;2022-08-04T02:20:45;10.60;;;2.30;;
6101;SDS011;3081;50.584;7.032;2022-08-04T02:23:14;11.30;;;2.73;;
6101;SDS011;3081;50.584;7.032;2022-08-04T02:25:52;9.80;;;2.60;;
6101;SDS011;3081;50.584;7.032;2022-08-04T02:28:25;10.97;;;2.70;;
6101;SDS011;3081;50.584;7.032;2022-08-04T02:30:58;10.53;;;2.83;;
6101;SDS011;3081;50.584;7.032;2022-08-04T02:33:41;10.87;;;2.80;;
6101;SDS011;3081;50.584;7.032;2022-08-04T02:36:13;11.47;;;2.80;;
6101;SDS011;3081;50.584;7.032;2022-08-04T02:38:55;14.30;;;2.73;;
6101;SDS011;3081;50.584;7.032;2022-08-04T02:41:25;10.30;;;3.00;;
6101;SDS011;3081;50.584;7.032;2022-08-04T02:43:54;10.70;;;2.77;;
6101;SDS011;3081;50.584;7.032;2022-08-04T02:46:22;12.73;;;2.83;;
6101;SDS011;3081;50.584;7.032;2022-08-04T02:48:52;11.93;;;2.80;;
6101;SDS011;3081;50.584;7.032;2022-08-04T02:51:23;10.43;;;2.90;;
6101;SDS011;3081;50.584;7.032;2022-08-04T02:53:53;13.00;;;2.77;;
6101;SDS011;3081;50.584;7.032;2022-08-04T02:56:22;11.53;;;3.07;;
6101;SDS011;3081;50.584;7.032;2022-08-04T02:58:51;15.00;;;2.93;;
6101;SDS011;3081;50.584;7.032;2022-08-04T03:01:21;16.43;;;3.10;;
6101;SDS011;3081;50.584;7.032;2022-08-04T03:03:55;13.07;;;2.70;;
6101;SDS011;3081;50.584;7.032;2022-08-04T03:12:47;10.60;;;2.93;;
6101;SDS011;3081;50.584;7.032;2022-08-04T03:16:00;11.20;;;3.03;;
6101;SDS011;3081;50.584;7.032;2022-08-04T03:25:13;10.30;;;3.10;;
6101;SDS011;3081;50.584;7.032;2022-08-04T03:31:04;12.43;;;3.50;;
6101;SDS011;3081;50.584;7.032;2022-08-04T03:33:54;10.80;;;2.93;;
6101;SDS011;3081;50.584;7.032;2022-08-04T03:42:43;11.87;;;2.60;;
6101;SDS011;3081;50.584;7.032;2022-08-04T03:45:38;14.83;;;3.37;;
6101;SDS011;3081;50.584;7.032;2022-08-04T03:48:47;12.50;;;3.13;;
6101;SDS011;3081;50.584;7.032;2022-08-04T03:51:26;15.60;;;3.47;;
6101;SDS011;3081;50.584;7.032;2022-08-04T03:54:47;18.30;;;3.17;;
6101;SDS011;3081;50.584;7.032;2022-08-04T04:00:36;14.60;;;3.20;;
6101;SDS011;3081;50.584;7.032;2022-08-04T04:03:20;11.20;;;3.10;;
6101;SDS011;3081;50.584;7.032;2022-08-04T04:06:07;12.30;;;3.30;;
6101;SDS011;3081;50.584;7.032;2022-08-04T04:09:08;11.43;;;2.80;;
6101;SDS011;3081;50.584;7.032;2022-08-04T04:12:13;13.23;;;2.93;;
6101;SDS011;3081;50.584;7.032;2022-08-04T04:15:15;11.13;;;3.20;;
6101;SDS011;3081;50.584;7.032;2022-08-04T04:17:51;10.83;;;3.10;;
6101;SDS011;3081;50.584;7.032;2022-08-04T04:20:40;11.60;;;3.13;;
6101;SDS011;3081;50.584;7.032;2022-08-04T04:23:25;10.13;;;3.03;;
6101;SDS011;3081;50.584;7.032;2022-08-04T04:26:03;11.57;;;2.67;;
6101;SDS011;3081;50.584;7.032;2022-08-04T04:28:48;13.57;;;3.23;;
6101;SDS011;3081;50.584;7.032;2022-08-04T04:31:32;15.17;;;3.40;;
6101;SDS011;3081;50.584;7.032;2022-08-04T04:34:13;11.30;;;3.57;;
6101;SDS011;3081;50.584;7.032;2022-08-04T04:36:55;11.03;;;3.10;;
6101;SDS011;3081;50.584;7.032;2022-08-04T04:39:39;12.07;;;3.07;;
6101;SDS011;3081;50.584;7.032;2022-08-04T04:42:23;10.80;;;2.90;;
6101;SDS011;3081;50.584;7.032;2022-08-04T04:45:14;11.33;;;3.40;;
6101;SDS011;3081;50.584;7.032;2022-08-04T04:47:55;11.60;;;3.20;;
6101;SDS011;3081;50.584;7.032;2022-08-04T04:50:27;12.30;;;2.77;;
6101;SDS011;3081;50.584;7.032;2022-08-04T04:53:03;13.60;;;3.43;;
6101;SDS011;3081;50.584;7.032;2022-08-04T04:55:40;10.30;;;2.67;;
6101;SDS011;3081;50.584;7.032;2022-08-04T04:58:10;14.60;;;3.27;;
6101;SDS011;3081;50.584;7.032;2022-08-04T05:00:48;9.83;;;2.50;;
6101;SDS011;3081;50.584;7.032;2022-08-04T05:03:38;11.07;;;2.93;;
6101;SDS011;3081;50.584;7.032;2022-08-04T05:06:25;12.80;;;2.90;;
6101;SDS011;3081;50.584;7.032;2022-08-04T05:09:15;11.53;;;3.03;;
6101;SDS011;3081;50.584;7.032;2022-08-04T05:11:52;14.55;;;3.55;;
6101;SDS011;3081;50.584;7.032;2022-08-04T05:14:50;16.10;;;3.23;;
6101;SDS011;3081;50.584;7.032;2022-08-04T05:17:24;12.20;;;3.10;;
6101;SDS011;3081;50.584;7.032;2022-08-04T05:20:15;18.53;;;8.93;;
6101;SDS011;3081;50.584;7.032;2022-08-04T05:22:46;13.90;;;4.90;;
6101;SDS011;3081;50.584;7.032;2022-08-04T05:25:20;13.47;;;3.87;;
6101;SDS011;3081;50.584;7.032;2022-08-04T05:27:49;21.43;;;9.40;;
6101;SDS011;3081;50.584;7.032;2022-08-04T05:30:21;13.50;;;3.37;;
6101;SDS011;3081;50.584;7.032;2022-08-04T05:32:54;16.47;;;5.63;;
6101;SDS011;3081;50.584;7.032;2022-08-04T05:35:29;15.33;;;5.60;;
6101;SDS011;3081;50.584;7.032;2022-08-04T05:38:00;11.67;;;3.67;;
6101;SDS011;3081;50.584;7.032;2022-08-04T05:40:29;15.77;;;4.20;;
6101;SDS011;3081;50.584;7.032;2022-08-04T05:42:56;14.07;;;3.40;;
6101;SDS011;3081;50.584;7.032;2022-08-04T05:45:24;13.20;;;4.40;;
6101;SDS011;3081;50.584;7.032;2022-08-04T05:47:53;11.47;;;3.30;;
6101;SDS011;3081;50.584;7.032;2022-08-04T05:50:20;19.07;;;3.80;;
6101;SDS011;3081;50.584;7.032;2022-08-04T05:52:49;12.53;;;2.67;;
6101;SDS011;3081;50.584;7.032;2022-08-04T05:55:16;12.10;;;2.57;;
6101;SDS011;3081;50.584;7.032;2022-08-04T05:57:44;12.23;;;3.00;;
6101;SDS011;3081;50.584;7.032;2022-08-04T06:00:14;15.63;;;2.60;;
6101;SDS011;3081;50.584;7.032;2022-08-04T06:02:43;12.83;;;2.67;;
6101;SDS011;3081;50.584;7.032;2022-08-04T06:05:14;11.27;;;2.70;;
6101;SDS011;3081;50.584;7.032;2022-08-04T06:07:43;10.97;;;2.70;;
6101;SDS011;3081;50.584;7.032;2022-08-04T06:10:10;11.90;;;2.60;;
6101;SDS011;3081;50.584;7.032;2022-08-04T06:12:38;11.60;;;2.33;;
6101;SDS011;3081;50.584;7.032;2022-08-04T06:15:10;14.70;;;2.77;;
6101;SDS011;3081;50.584;7.032;2022-08-04T06:17:41;11.90;;;2.53;;
6101;SDS011;3081;50.584;7.032;2022-08-04T06:20:14;11.50;;;2.33;;
6101;SDS011;3081;50.584;7.032;2022-08-04T06:22:44;13.60;;;2.50;;
6101;SDS011;3081;50.584;7.032;2022-08-04T06:25:15;12.60;;;2.50;;
6101;SDS011;3081;50.584;7.032;2022-08-04T06:27:45;11.70;;;2.73;;
6101;SDS011;3081;50.584;7.032;2022-08-04T06:30:14;11.00;;;3.07;;
6101;SDS011;3081;50.584;7.032;2022-08-04T06:32:43;11.37;;;2.30;;
6101;SDS011;3081;50.584;7.032;2022-08-04T06:35:21;10.47;;;2.50;;
6101;SDS011;3081;50.584;7.032;2022-08-04T06:37:51;11.60;;;2.63;;
6101;SDS011;3081;50.584;7.032;2022-08-04T06:40:21;13.60;;;2.73;;
6101;SDS011;3081;50.584;7.032;2022-08-04T06:42:49;10.90;;;2.43;;
6101;SDS011;3081;50.584;7.032;2022-08-04T06:45:18;9.97;;;2.40;;
6101;SDS011;3081;50.584;7.032;2022-08-04T06:47:45;12.43;;;2.70;;
6101;SDS011;3081;50.584;7.032;2022-08-04T06:50:14;12.13;;;2.60;;
6101;SDS011;3081;50.584;7.032;2022-08-04T06:52:44;14.40;;;2.20;;
6101;SDS011;3081;50.584;7.032;2022-08-04T06:55:11;15.43;;;3.40;;
6101;SDS011;3081;50.584;7.032;2022-08-04T06:57:38;11.07;;;2.70;;
6101;SDS011;3081;50.584;7.032;2022-08-04T07:00:07;15.00;;;2.90;;
6101;SDS011;3081;50.584;7.032;2022-08-04T07:02:38;9.70;;;2.30;;
6101;SDS011;3081;50.584;7.032;2022-08-04T07:05:07;14.73;;;2.83;;
6101;SDS011;3081;50.584;7.032;2022-08-04T07:07:36;14.70;;;2.53;;
6101;SDS011;3081;50.584;7.032;2022-08-04T07:10:07;10.30;;;2.23;;
6101;SDS011;3081;50.584;7.032;2022-08-04T07:12:35;10.70;;;2.30;;
6101;SDS011;3081;50.584;7.032;2022-08-04T07:15:03;9.27;;;2.10;;
6101;SDS011;3081;50.584;7.032;2022-08-04T07:17:32;9.60;;;2.10;;
6101;SDS011;3081;50.584;7.032;2022-08-04T07:20:00;10.03;;;2.37;;
6101;SDS011;3081;50.584;7.032;2022-08-04T07:22:27;9.23;;;2.10;;
6101;SDS011;3081;50.584;7.032;2022-08-04T07:24:55;11.20;;;2.53;;
6101;SDS011;3081;50.584;7.032;2022-08-04T07:27:25;16.40;;;2.90;;
6101;SDS011;3081;50.584;7.032;2022-08-04T07:29:52;16.20;;;3.30;;
6101;SDS011;3081;50.584;7.032;2022-08-04T07:32:20;16.83;;;3.30;;
6101;SDS011;3081;50.584;7.032;2022-08-04T07:34:48;11.03;;;2.43;;
6101;SDS011;3081;50.584;7.032;2022-08-04T07:37:15;14.53;;;3.20;;
6101;SDS011;3081;50.584;7.032;2022-08-04T07:39:42;9.60;;;2.23;;
6101;SDS011;3081;50.584;7.032;2022-08-04T07:42:09;12.23;;;2.27;;
6101;SDS011;3081;50.584;7.032;2022-08-04T07:44:38;9.33;;;2.20;;
6101;SDS011;3081;50.584;7.032;2022-08-04T07:47:06;9.30;;;2.03;;
6101;SDS011;3081;50.584;7.032;2022-08-04T07:49:33;12.17;;;2.13;;
6101;SDS011;3081;50.584;7.032;2022-08-04T07:52:01;12.07;;;2.13;;
6101;SDS011;3081;50.584;7.032;2022-08-04T07:54:29;12.57;;;2.70;;
6101;SDS011;3081;50.584;7.032;2022-08-04T07:56:56;10.30;;;1.90;;
6101;SDS011;3081;50.584;7.032;2022-08-04T07:59:23;9.03;;;1.80;;
6101;SDS011;3081;50.584;7.032;2022-08-04T08:01:52;10.60;;;2.13;;
6101;SDS011;3081;50.584;7.032;2022-08-04T08:04:20;11.90;;;2.57;;
6101;SDS011;3081;50.584;7.032;2022-08-04T08:06:48;9.97;;;2.20;;
6101;SDS011;3081;50.584;7.032;2022-08-04T08:09:17;10.60;;;2.27;;
6101;SDS011;3081;50.584;7.032;2022-08-04T08:11:46;8.90;;;1.90;;
6101;SDS011;3081;50.584;7.032;2022-08-04T08:14:14;8.53;;;1.80;;
6101;SDS011;3081;50.584;7.032;2022-08-04T08:16:42;10.97;;;2.17;;
6101;SDS011;3081;50.584;7.032;2022-08-04T08:19:11;9.80;;;2.00;;
6101;SDS011;3081;50.584;7.032;2022-08-04T08:21:38;9.50;;;2.03;;
6101;SDS011;3081;50.584;7.032;2022-08-04T08:24:06;10.07;;;2.03;;
6101;SDS011;3081;50.584;7.032;2022-08-04T08:26:33;8.67;;;1.90;;
6101;SDS011;3081;50.584;7.032;2022-08-04T08:29:01;10.27;;;2.20;;
6101;SDS011;3081;50.584;7.032;2022-08-04T08:31:28;8.60;;;1.70;;
6101;SDS011;3081;50.584;7.032;2022-08-04T08:33:55;11.97;;;2.50;;
6101;SDS011;3081;50.584;7.032;2022-08-04T08:36:27;9.17;;;1.83;;
6101;SDS011;3081;50.584;7.032;2022-08-04T08:39:00;9.00;;;1.50;;
6101;SDS011;3081;50.584;7.032;2022-08-04T08:45:03;10.10;;;1.50;;
6101;SDS011;3081;50.584;7.032;2022-08-04T08:47:55;8.90;;;1.83;;
6101;SDS011;3081;50.584;7.032;2022-08-04T08:50:51;8.70;;;1.50;;
6101;SDS011;3081;50.584;7.032;2022-08-04T08:53:38;8.50;;;1.83;;
6101;SDS011;3081;50.584;7.032;2022-08-04T08:56:16;12.77;;;1.90;;
6101;SDS011;3081;50.584;7.032;2022-08-04T09:01:57;8.70;;;1.93;;
6101;SDS011;3081;50.584;7.032;2022-08-04T09:07:42;9.43;;;1.60;;
6101;SDS011;3081;50.584;7.032;2022-08-04T09:10:25;12.63;;;1.93;;
6101;SDS011;3081;50.584;7.032;2022-08-04T09:13:01;8.33;;;1.77;;
6101;SDS011;3081;50.584;7.032;2022-08-04T09:15:32;8.80;;;2.00;;
6101;SDS011;3081;50.584;7.032;2022-08-04T09:18:04;9.80;;;1.80;;
6101;SDS011;3081;50.584;7.032;2022-08-04T09:20:36;10.83;;;1.70;;
6101;SDS011;3081;50.584;7.032;2022-08-04T09:23:17;7.83;;;1.60;;
6101;SDS011;3081;50.584;7.032;2022-08-04T09:26:01;8.80;;;1.70;;
6101;SDS011;3081;50.584;7.032;2022-08-04T09:28:36;8.13;;;1.30;;
6101;SDS011;3081;50.584;7.032;2022-08-04T09:31:12;9.53;;;1.50;;
6101;SDS011;3081;50.584;7.032;2022-08-04T09:33:45;7.20;;;1.60;;
6101;SDS011;3081;50.584;7.032;2022-08-04T09:36:19;9.03;;;1.40;;
6101;SDS011;3081;50.584;7.032;2022-08-04T09:38:59;7.37;;;1.47;;
6101;SDS011;3081;50.584;7.032;2022-08-04T09:41:33;7.00;;;1.47;;
6101;SDS011;3081;50.584;7.032;2022-08-04T09:44:09;6.50;;;1.30;;
6101;SDS011;3081;50.584;7.032;2022-08-04T09:46:44;7.53;;;1.20;;
6101;SDS011;3081;50.584;7.032;2022-08-04T09:49:17;8.27;;;1.40;;
6101;SDS011;3081;50.584;7.032;2022-08-04T09:51:52;6.90;;;1.20;;
6101;SDS011;3081;50.584;7.032;2022-08-04T09:54:32;8.60;;;1.37;;
6101;SDS011;3081;50.584;7.032;2022-08-04T09:57:11;10.50;;;1.37;;
6101;SDS011;3081;50.584;7.032;2022-08-04T09:59:43;7.10;;;1.13;;
6101;SDS011;3081;50.584;7.032;2022-08-04T10:02:18;6.77;;;1.00;;
6101;SDS011;3081;50.584;7.032;2022-08-04T10:04:49;5.30;;;0.80;;
6101;SDS011;3081;50.584;7.032;2022-08-04T10:07:28;7.07;;;1.30;;
6101;SDS011;3081;50.584;7.032;2022-08-04T10:10:16;12.53;;;2.00;;
6101;SDS011;3081;50.584;7.032;2022-08-04T10:13:02;12.00;;;1.17;;
6101;SDS011;3081;50.584;7.032;2022-08-04T10:15:39;7.60;;;1.07;;
6101;SDS011;3081;50.584;7.032;2022-08-04T10:18:16;6.87;;;1.10;;
6101;SDS011;3081;50.584;7.032;2022-08-04T10:20:59;7.83;;;1.10;;
6101;SDS011;3081;50.584;7.032;2022-08-04T10:23:34;6.40;;;1.17;;
6101;SDS011;3081;50.584;7.032;2022-08-04T10:26:15;7.50;;;1.30;;
6101;SDS011;3081;50.584;7.032;2022-08-04T10:28:54;6.90;;;1.20;;
6101;SDS011;3081;50.584;7.032;2022-08-04T10:31:27;9.37;;;1.43;;
6101;SDS011;3081;50.584;7.032;2022-08-04T10:33:59;8.93;;;1.27;;
6101;SDS011;3081;50.584;7.032;2022-08-04T10:36:31;6.37;;;1.00;;
6101;SDS011;3081;50.584;7.032;2022-08-04T10:39:07;7.33;;;1.00;;
6101;SDS011;3081;50.584;7.032;2022-08-04T10:41:41;6.83;;;0.80;;
6101;SDS011;3081;50.584;7.032;2022-08-04T10:44:22;6.30;;;1.20;;
6101;SDS011;3081;50.584;7.032;2022-08-04T10:47:03;5.43;;;0.90;;
6101;SDS011;3081;50.584;7.032;2022-08-04T10:49:36;4.97;;;0.80;;
6101;SDS011;3081;50.584;7.032;2022-08-04T10:52:10;6.10;;;0.83;;
6101;SDS011;3081;50.584;7.032;2022-08-04T10:54:46;5.20;;;0.70;;
6101;SDS011;3081;50.584;7.032;2022-08-04T10:57:22;5.87;;;0.93;;
6101;SDS011;3081;50.584;7.032;2022-08-04T10:59:57;7.30;;;1.47;;
6101;SDS011;3081;50.584;7.032;2022-08-04T11:02:30;6.63;;;0.90;;
6101;SDS011;3081;50.584;7.032;2022-08-04T11:05:04;8.10;;;0.97;;
6101;SDS011;3081;50.584;7.032;2022-08-04T11:07:42;7.03;;;0.97;;
6101;SDS011;3081;50.584;7.032;2022-08-04T11:10:12;6.43;;;0.80;;
6101;SDS011;3081;50.584;7.032;2022-08-04T11:12:42;5.40;;;0.87;;
6101;SDS011;3081;50.584;7.032;2022-08-04T11:15:14;6.00;;;0.97;;
6101;SDS011;3081;50.584;7.032;2022-08-04T11:17:46;9.00;;;1.00;;
6101;SDS011;3081;50.584;7.032;2022-08-04T11:20:20;6.20;;;1.00;;
6101;SDS011;3081;50.584;7.032;2022-08-04T11:22:54;6.33;;;1.00;;
6101;SDS011;3081;50.584;7.032;2022-08-04T11:25:28;6.10;;;0.97;;
6101;SDS011;3081;50.584;7.032;2022-08-04T11:28:02;8.87;;;1.10;;
6101;SDS011;3081;50.584;7.032;2022-08-04T11:30:36;6.03;;;0.97;;
6101;SDS011;3081;50.584;7.032;2022-08-04T11:33:11;6.53;;;1.00;;
6101;SDS011;3081;50.584;7.032;2022-08-04T11:35:49;5.80;;;1.00;;
6101;SDS011;3081;50.584;7.032;2022-08-04T11:38:24;6.50;;;0.97;;
6101;SDS011;3081;50.584;7.032;2022-08-04T11:40:57;6.50;;;1.20;;
6101;SDS011;3081;50.584;7.032;2022-08-04T11:43:32;8.20;;;1.23;;
6101;SDS011;3081;50.584;7.032;2022-08-04T11:46:07;9.00;;;1.60;;
6101;SDS011;3081;50.584;7.032;2022-08-04T11:48:42;6.70;;;1.10;;
6101;SDS011;3081;50.584;7.032;2022-08-04T11:51:15;8.97;;;1.30;;
6101;SDS011;3081;50.584;7.032;2022-08-04T11:53:43;10.07;;;1.13;;
6101;SDS011;3081;50.584;7.032;2022-08-04T11:56:12;7.40;;;1.40;;
6101;SDS011;3081;50.584;7.032;2022-08-04T11:58:41;8.00;;;1.60;;
6101;SDS011;3081;50.584;7.032;2022-08-04T12:01:14;14.23;;;2.17;;
6101;SDS011;3081;50.584;7.032;2022-08-04T12:03:54;8.50;;;1.40;;
6101;SDS011;3081;50.584;7.032;2022-08-04T12:06:28;8.30;;;1.80;;
6101;SDS011;3081;50.584;7.032;2022-08-04T12:09:02;7.30;;;1.23;;
6101;SDS011;3081;50.584;7.032;2022-08-04T12:11:38;10.30;;;1.60;;
6101;SDS011;3081;50.584;7.032;2022-08-04T12:14:12;7.37;;;1.10;;
6101;SDS011;3081;50.584;7.032;2022-08-04T12:16:51;12.00;;;1.97;;
6101;SDS011;3081;50.584;7.032;2022-08-04T12:19:25;12.93;;;1.97;;
6101;SDS011;3081;50.584;7.032;2022-08-04T12:21:57;11.83;;;2.27;;
6101;SDS011;3081;50.584;7.032;2022-08-04T12:24:30;11.87;;;1.90;;
6101;SDS011;3081;50.584;7.032;2022-08-04T12:27:03;13.33;;;2.20;;
6101;SDS011;3081;50.584;7.032;2022-08-04T12:29:36;10.00;;;2.60;;
6101;SDS011;3081;50.584;7.032;2022-08-04T12:32:12;9.67;;;2.17;;
6101;SDS011;3081;50.584;7.032;2022-08-04T12:34:45;9.43;;;1.93;;
6101;SDS011;3081;50.584;7.032;2022-08-04T12:37:22;10.77;;;1.97;;
6101;SDS011;3081;50.584;7.032;2022-08-04T12:39:54;13.30;;;2.23;;
6101;SDS011;3081;50.584;7.032;2022-08-04T12:42:28;18.83;;;2.63;;
6101;SDS011;3081;50.584;7.032;2022-08-04T12:45:06;11.53;;;2.07;;
6101;SDS011;3081;50.584;7.032;2022-08-04T12:47:36;13.53;;;2.60;;
6101;SDS011;3081;50.584;7.032;2022-08-04T12:50:04;9.10;;;1.80;;
6101;SDS011;3081;50.584;7.032;2022-08-04T12:52:40;11.97;;;2.40;;
6101;SDS011;3081;50.584;7.032;2022-08-04T12:55:08;21.23;;;2.30;;
6101;SDS011;3081;50.584;7.032;2022-08-04T12:57:37;11.50;;;2.13;;
6101;SDS011;3081;50.584;7.032;2022-08-04T13:00:06;14.43;;;1.83;;
6101;SDS011;3081;50.584;7.032;2022-08-04T13:02:37;15.93;;;2.40;;
6101;SDS011;3081;50.584;7.032;2022-08-04T13:05:08;12.43;;;2.00;;
6101;SDS011;3081;50.584;7.032;2022-08-04T13:07:39;14.10;;;2.07;;
6101;SDS011;3081;50.584;7.032;2022-08-04T13:10:12;9.90;;;1.90;;
6101;SDS011;3081;50.584;7.032;2022-08-04T13:12:40;17.20;;;2.53;;
6101;SDS011;3081;50.584;7.032;2022-08-04T13:15:10;19.50;;;2.60;;
6101;SDS011;3081;50.584;7.032;2022-08-04T13:17:43;12.13;;;2.87;;
6101;SDS011;3081;50.584;7.032;2022-08-04T13:20:15;8.33;;;1.70;;
6101;SDS011;3081;50.584;7.032;2022-08-04T13:22:49;11.10;;;2.27;;
6101;SDS011;3081;50.584;7.032;2022-08-04T13:25:16;12.40;;;2.20;;
6101;SDS011;3081;50.584;7.032;2022-08-04T13:27:43;13.33;;;2.00;;
6101;SDS011;3081;50.584;7.032;2022-08-04T13:30:12;12.37;;;2.23;;
6101;SDS011;3081;50.584;7.032;2022-08-04T13:32:45;10.77;;;2.07;;
6101;SDS011;3081;50.584;7.032;2022-08-04T13:35:13;10.30;;;2.10;;
6101;SDS011;3081;50.584;7.032;2022-08-04T13:37:40;11.03;;;2.03;;
6101;SDS011;3081;50.584;7.032;2022-08-04T13:40:09;9.03;;;2.20;;
6101;SDS011;3081;50.584;7.032;2022-08-04T13:42:39;11.13;;;2.00;;
6101;SDS011;3081;50.584;7.032;2022-08-04T13:45:11;9.43;;;1.87;;
6101;SDS011;3081;50.584;7.032;2022-08-04T13:47:40;10.80;;;1.50;;
6101;SDS011;3081;50.584;7.032;2022-08-04T13:50:14;7.63;;;1.50;;
6101;SDS011;3081;50.584;7.032;2022-08-04T13:52:45;5.43;;;1.10;;
6101;SDS011;3081;50.584;7.032;2022-08-04T13:55:23;5.23;;;1.20;;
6101;SDS011;3081;50.584;7.032;2022-08-04T13:57:54;9.83;;;1.20;;
6101;SDS011;3081;50.584;7.032;2022-08-04T14:00:36;7.23;;;1.60;;
6101;SDS011;3081;50.584;7.032;2022-08-04T14:03:08;7.40;;;1.70;;
6101;SDS011;3081;50.584;7.032;2022-08-04T14:05:40;5.70;;;1.20;;
6101;SDS011;3081;50.584;7.032;2022-08-04T14:08:11;4.93;;;1.07;;
6101;SDS011;3081;50.584;7.032;2022-08-04T14:10:51;7.20;;;1.50;;
6101;SDS011;3081;50.584;7.032;2022-08-04T14:13:27;11.30;;;1.47;;
6101;SDS011;3081;50.584;7.032;2022-08-04T14:15:55;6.63;;;1.13;;
6101;SDS011;3081;50.584;7.032;2022-08-04T14:18:23;8.97;;;1.80;;
6101;SDS011;3081;50.584;7.032;2022-08-04T14:21:00;8.83;;;1.57;;
6101;SDS011;3081;50.584;7.032;2022-08-04T14:23:31;10.17;;;1.20;;
6101;SDS011;3081;50.584;7.032;2022-08-04T14:26:15;6.00;;;1.17;;
6101;SDS011;3081;50.584;7.032;2022-08-04T14:28:45;4.80;;;1.00;;
6101;SDS011;3081;50.584;7.032;2022-08-04T14:31:13;6.50;;;1.37;;
6101;SDS011;3081;50.584;7.032;2022-08-04T14:33:42;5.00;;;1.20;;
6101;SDS011;3081;50.584;7.032;2022-08-04T14:36:12;6.40;;;1.33;;
6101;SDS011;3081;50.584;7.032;2022-08-04T14:38:41;10.13;;;1.13;;
6101;SDS011;3081;50.584;7.032;2022-08-04T14:41:11;9.70;;;2.90;;
6101;SDS011;3081;50.584;7.032;2022-08-04T14:43:42;7.10;;;1.60;;
6101;SDS011;3081;50.584;7.032;2022-08-04T14:46:10;7.20;;;1.57;;
6101;SDS011;3081;50.584;7.032;2022-08-04T14:48:37;9.70;;;2.10;;
6101;SDS011;3081;50.584;7.032;2022-08-04T14:51:05;12.07;;;1.70;;
6101;SDS011;3081;50.584;7.032;2022-08-04T14:53:40;9.73;;;2.00;;
6101;SDS011;3081;50.584;7.032;2022-08-04T14:56:13;11.90;;;2.30;;
6101;SDS011;3081;50.584;7.032;2022-08-04T14:58:40;14.07;;;1.87;;
6101;SDS011;3081;50.584;7.032;2022-08-04T15:01:08;9.30;;;2.07;;
6101;SDS011;3081;50.584;7.032;2022-08-04T15:03:39;13.40;;;1.97;;
6101;SDS011;3081;50.584;7.032;2022-08-04T15:06:07;9.27;;;1.90;;
6101;SDS011;3081;50.584;7.032;2022-08-04T15:08:36;8.47;;;1.67;;
6101;SDS011;3081;50.584;7.032;2022-08-04T15:11:03;10.00;;;1.83;;
6101;SDS011;3081;50.584;7.032;2022-08-04T15:13:31;7.83;;;1.43;;
6101;SDS011;3081;50.584;7.032;2022-08-04T15:15:59;7.77;;;1.57;;
6101;SDS011;3081;50.584;7.032;2022-08-04T15:18:26;8.17;;;1.57;;
6101;SDS011;3081;50.584;7.032;2022-08-04T15:20:54;11.10;;;2.20;;
6101;SDS011;3081;50.584;7.032;2022-08-04T15:23:22;10.13;;;2.30;;
6101;SDS011;3081;50.584;7.032;2022-08-04T15:25:51;12.27;;;2.13;;
6101;SDS011;3081;50.584;7.032;2022-08-04T15:28:22;12.67;;;2.13;;
6101;SDS011;3081;50.584;7.032;2022-08-04T15:30:51;15.33;;;2.53;;
6101;SDS011;3081;50.584;7.032;2022-08-04T15:33:19;15.10;;;2.70;;
6101;SDS011;3081;50.584;7.032;2022-08-04T15:35:49;9.73;;;1.90;;
6101;SDS011;3081;50.584;7.032;2022-08-04T15:38:35;9.67;;;2.17;;
6101;SDS011;3081;50.584;7.032;2022-08-04T15:41:08;12.47;;;2.30;;
6101;SDS011;3081;50.584;7.032;2022-08-04T15:43:45;10.00;;;2.70;;
6101;SDS011;3081;50.584;7.032;2022-08-04T15:46:25;11.70;;;2.67;;
6101;SDS011;3081;50.584;7.032;2022-08-04T15:49:29;17.20;;;2.60;;
6101;SDS011;3081;50.584;7.032;2022-08-04T15:51:58;12.17;;;2.70;;
6101;SDS011;3081;50.584;7.032;2022-08-04T15:54:26;13.23;;;2.80;;
6101;SDS011;3081;50.584;7.032;2022-08-04T15:56:54;16.00;;;2.57;;
6101;SDS011;3081;50.584;7.032;2022-08-04T16:02:36;12.03;;;2.77;;
6101;SDS011;3081;50.584;7.032;2022-08-04T16:08:07;14.47;;;3.10;;
6101;SDS011;3081;50.584;7.032;2022-08-04T16:10:37;15.97;;;2.73;;
6101;SDS011;3081;50.584;7.032;2022-08-04T16:13:07;11.50;;;2.90;;
6101;SDS011;3081;50.584;7.032;2022-08-04T16:18:38;10.00;;;2.27;;
6101;SDS011;3081;50.584;7.032;2022-08-04T16:21:20;12.53;;;2.47;;
6101;SDS011;3081;50.584;7.032;2022-08-04T16:23:53;21.93;;;2.87;;
6101;SDS011;3081;50.584;7.032;2022-08-04T16:26:41;16.50;;;3.50;;
6101;SDS011;3081;50.584;7.032;2022-08-04T16:34:53;13.03;;;3.50;;
6101;SDS011;3081;50.584;7.032;2022-08-04T16:37:28;16.30;;;3.80;;
6101;SDS011;3081;50.584;7.032;2022-08-04T16:42:53;35.93;;;5.27;;